Time;durP1;ratioP1;P1;durP2;ratioP2;P2;SDS_P1;SDS_P2;PMS_P1;PMS_P2;Temp;Humidity;BMP_temperature;BMP_pressure;BME280_temperature;BME280_humidity;BME280_pressure;Samples;Min_cycle;Max_cycle;Signal;HPM_P1;HPM_P2
2023/09/17 00:02:17;;;;;;;12.63;6.78;;;;;;;12.00;100.00;100944.41;5011453;28;20034;-78
2023/09/17 00:04:43;;;;;;;12.80;7.13;;;;;;;11.98;100.00;100944.56;5012431;28;20034;-78
2023/09/17 00:07:09;;;;;;;11.15;6.55;;;;;;;11.99;100.00;100943.56;4995938;28;20038;-78
2023/09/17 00:09:35;;;;;;;10.52;7.22;;;;;;;12.03;100.00;100941.34;4996193;28;20034;-78
2023/09/17 00:12:00;;;;;;;13.40;7.88;;;;;;;12.02;100.00;100940.50;4995900;28;20409;-78
2023/09/17 00:14:26;;;;;;;12.10;6.80;;;;;;;12.00;100.00;100937.13;4979791;28;20026;-78
2023/09/17 00:16:52;;;;;;;12.10;7.18;;;;;;;12.00;100.00;100930.91;4995852;28;20120;-78
2023/09/17 00:19:19;;;;;;;12.25;7.55;;;;;;;12.00;100.00;100929.06;4995898;28;20489;-78
2023/09/17 00:21:45;;;;;;;12.65;6.70;;;;;;;12.00;100.00;100925.53;5011901;28;20034;-78
2023/09/17 00:24:11;;;;;;;11.98;6.28;;;;;;;12.00;100.00;100923.66;4979717;28;20504;-78
2023/09/17 00:26:39;;;;;;;11.32;6.18;;;;;;;12.01;100.00;100922.66;4996038;28;20188;-78
2023/09/17 00:29:04;;;;;;;9.95;6.30;;;;;;;12.00;100.00;100922.84;5011751;28;20038;-78
2023/09/17 00:31:30;;;;;;;12.73;7.45;;;;;;;12.01;100.00;100919.97;4979489;28;20034;-78
2023/09/17 00:33:55;;;;;;;13.57;6.60;;;;;;;11.99;100.00;100910.38;4979507;28;20112;-78
2023/09/17 00:36:22;;;;;;;17.13;7.30;;;;;;;11.96;100.00;100910.72;4979370;28;20172;-78
2023/09/17 00:38:48;;;;;;;13.18;6.82;;;;;;;11.99;100.00;100915.78;4979445;28;20031;-78
2023/09/17 00:41:13;;;;;;;17.30;7.20;;;;;;;11.98;100.00;100914.91;4995083;28;20031;-78
2023/09/17 00:43:39;;;;;;;13.95;7.63;;;;;;;11.97;100.00;100907.88;4979361;28;20129;-78
2023/09/17 00:46:05;;;;;;;12.07;7.22;;;;;;;11.99;100.00;100905.00;4995387;28;20149;-78
2023/09/17 00:48:31;;;;;;;17.73;9.20;;;;;;;11.98;100.00;100897.91;5011604;28;20080;-78
2023/09/17 00:50:58;;;;;;;13.30;7.20;;;;;;;11.94;100.00;100893.94;4995183;28;20084;-78
2023/09/17 00:53:24;;;;;;;15.43;7.60;;;;;;;11.93;100.00;100889.53;5011636;28;20038;-78
2023/09/17 00:55:50;;;;;;;12.07;7.45;;;;;;;11.94;100.00;100889.38;4995064;28;20034;-79
2023/09/17 00:58:16;;;;;;;15.70;9.15;;;;;;;11.93;100.00;100886.84;4979075;28;20473;-78
2023/09/17 01:00:43;;;;;;;12.43;7.40;;;;;;;11.95;100.00;100892.91;4962790;28;20034;-78
2023/09/17 01:03:09;;;;;;;17.08;8.07;;;;;;;11.92;100.00;100877.09;4995250;28;20100;-78
2023/09/17 01:05:40;;;;;;;16.02;8.32;;;;;;;11.96;100.00;100883.78;4995008;28;20034;-78
2023/09/17 01:08:06;;;;;;;14.57;7.88;;;;;;;11.96;100.00;100883.78;4978184;28;20046;-79
2023/09/17 01:10:34;;;;;;;14.70;8.48;;;;;;;11.98;100.00;100887.13;5010610;28;20069;-78
2023/09/17 01:13:01;;;;;;;12.85;6.88;;;;;;;11.98;100.00;100876.34;4994120;28;20042;-79
2023/09/17 01:15:27;;;;;;;14.93;7.68;;;;;;;11.98;100.00;100879.06;4978646;28;20414;-78
2023/09/17 01:17:57;;;;;;;14.40;7.45;;;;;;;11.98;100.00;100870.97;4978569;28;20034;-78
2023/09/17 01:20:29;;;;;;;13.02;7.55;;;;;;;12.00;100.00;100874.31;4994871;28;20038;-78
2023/09/17 01:23:08;;;;;;;16.17;7.47;;;;;;;12.00;100.00;100875.16;4994669;28;20030;-78
2023/09/17 01:25:46;;;;;;;16.65;7.57;;;;;;;12.00;100.00;100871.63;4994787;28;20417;-78
2023/09/17 01:28:13;;;;;;;15.90;7.25;;;;;;;11.98;100.00;100870.97;5010405;28;20535;-78
2023/09/17 01:30:41;;;;;;;18.42;7.65;;;;;;;12.00;100.00;100868.94;4978211;28;20061;-78
2023/09/17 01:33:11;;;;;;;13.07;6.93;;;;;;;11.98;100.00;100869.09;4994259;28;20027;-78
2023/09/17 01:35:45;;;;;;;15.23;7.63;;;;;;;11.97;100.00;100863.91;4962224;28;20555;-78
2023/09/17 01:38:13;;;;;;;15.40;7.40;;;;;;;11.96;100.00;100857.69;4978193;28;20042;-78
2023/09/17 01:40:41;;;;;;;14.43;7.38;;;;;;;11.97;100.00;100853.13;4978305;28;20491;-78
2023/09/17 01:43:07;;;;;;;15.18;8.07;;;;;;;11.93;100.00;100844.56;4994327;28;20038;-78
2023/09/17 01:45:34;;;;;;;16.75;8.40;;;;;;;11.94;100.00;100840.88;4978193;28;20120;-78
2023/09/17 01:48:01;;;;;;;15.27;7.38;;;;;;;11.94;100.00;100842.72;4977747;28;20034;-78
2023/09/17 01:50:28;;;;;;;17.08;7.63;;;;;;;11.92;100.00;100842.06;4994134;28;20481;-78
2023/09/17 01:52:54;;;;;;;15.82;8.20;;;;;;;11.90;100.00;100844.94;4977821;28;20485;-78
2023/09/17 01:55:22;;;;;;;16.42;9.20;;;;;;;11.90;100.00;100841.41;4994184;28;20070;-79
2023/09/17 01:57:48;;;;;;;16.98;8.00;;;;;;;11.87;100.00;100834.53;4993621;28;20038;-78
2023/09/17 02:00:16;;;;;;;16.38;8.10;;;;;;;11.88;100.00;100834.34;5010150;28;20026;-78
2023/09/17 02:02:49;;;;;;;17.20;8.60;;;;;;;11.86;100.00;100824.78;5009990;28;20042;-78
2023/09/17 02:05:16;;;;;;;15.55;8.18;;;;;;;11.82;100.00;100823.41;4994041;28;20128;-78
2023/09/17 02:07:43;;;;;;;16.60;7.82;;;;;;;11.85;100.00;100826.59;4993436;28;20128;-79
2023/09/17 02:10:09;;;;;;;16.90;8.43;;;;;;;11.83;100.00;100820.56;4993785;28;20038;-78
2023/09/17 02:12:34;;;;;;;18.83;8.55;;;;;;;11.80;100.00;100810.16;4993821;28;20121;-78
2023/09/17 02:15:00;;;;;;;16.02;8.90;;;;;;;11.82;100.00;100809.94;4993865;28;20121;-78
2023/09/17 02:17:25;;;;;;;21.15;8.90;;;;;;;11.82;100.00;100807.25;4993659;28;20065;-78
2023/09/17 02:19:51;;;;;;;20.70;9.50;;;;;;;11.81;100.00;100808.28;5010001;28;20034;-78
2023/09/17 02:22:17;;;;;;;21.38;9.63;;;;;;;11.80;100.00;100799.38;5009682;28;20030;-78
2023/09/17 02:24:42;;;;;;;26.92;9.38;;;;;;;11.80;100.00;100801.22;4977369;28;20034;-79
2023/09/17 02:27:08;;;;;;;24.75;9.23;;;;;;;11.80;100.00;100799.38;4994428;28;20037;-78
2023/09/17 02:29:34;;;;;;;19.58;8.57;;;;;;;11.78;100.00;100790.63;4993614;28;20096;-78
2023/09/17 02:32:00;;;;;;;21.45;9.05;;;;;;;11.77;100.00;100791.63;4993661;28;20038;-78
2023/09/17 02:34:25;;;;;;;21.58;9.05;;;;;;;11.79;100.00;100794.16;4993512;28;20376;-78
2023/09/17 02:36:51;;;;;;;22.80;9.43;;;;;;;11.77;100.00;100785.41;4992973;28;20053;-79
2023/09/17 02:39:16;;;;;;;20.65;9.30;;;;;;;11.82;100.00;100781.16;4994602;28;20030;-78
2023/09/17 02:41:42;;;;;;;21.50;9.20;;;;;;;11.80;100.00;100769.75;5009271;28;20553;-78
2023/09/17 02:44:08;;;;;;;19.77;9.13;;;;;;;11.84;100.00;100770.19;4977173;28;20030;-78
2023/09/17 02:46:34;;;;;;;16.98;9.60;;;;;;;11.83;100.00;100768.53;4976506;28;20034;-78
2023/09/17 02:49:00;;;;;;;18.35;9.13;;;;;;;11.85;100.00;100763.78;4977087;28;20104;-78
2023/09/17 02:51:27;;;;;;;30.50;9.88;;;;;;;11.86;100.00;100766.34;4993240;28;20042;-78
2023/09/17 02:53:52;;;;;;;25.48;11.63;;;;;;;11.84;100.00;100754.88;4977005;28;20034;-78
2023/09/17 02:56:18;;;;;;;21.25;8.68;;;;;;;11.85;100.00;100753.88;4993230;28;20436;-78
2023/09/17 02:58:46;;;;;;;18.15;8.88;;;;;;;11.87;100.00;100756.38;5009325;28;20026;-78
2023/09/17 03:01:17;;;;;;;21.77;8.27;;;;;;;11.86;100.00;100750.16;5009214;28;20038;-78
2023/09/17 03:03:46;;;;;;;20.10;9.25;;;;;;;11.87;100.00;100749.13;4976431;28;20038;-78
2023/09/17 03:06:12;;;;;;;20.35;10.30;;;;;;;11.90;100.00;100747.09;4976889;28;20137;-78
2023/09/17 03:08:41;;;;;;;22.42;9.40;;;;;;;11.89;100.00;100746.28;4976773;28;20117;-78
2023/09/17 03:11:13;;;;;;;25.48;10.60;;;;;;;11.86;100.00;100734.00;5008963;28;20061;-78
2023/09/17 03:13:43;;;;;;;25.20;11.20;;;;;;;11.87;100.00;100741.06;4976786;28;20031;-78
2023/09/17 03:16:09;;;;;;;28.02;10.32;;;;;;;11.86;100.00;100736.69;4976356;28;20041;-78
2023/09/17 03:18:35;;;;;;;25.90;9.70;;;;;;;11.86;100.00;100736.69;5009220;28;20026;-78
2023/09/17 03:21:07;;;;;;;24.20;10.18;;;;;;;11.86;100.00;100734.00;4992500;28;20035;-78
2023/09/17 03:23:33;;;;;;;22.43;9.47;;;;;;;11.85;100.00;100726.91;4993181;28;20385;-78
2023/09/17 03:26:01;;;;;;;22.40;9.27;;;;;;;11.87;100.00;100724.88;4992997;28;20469;-78
2023/09/17 03:28:27;;;;;;;23.42;9.90;;;;;;;11.87;100.00;100730.28;4976187;28;20033;-78
2023/09/17 03:30:53;;;;;;;23.17;10.32;;;;;;;11.85;100.00;100717.97;4992485;28;20030;-78
2023/09/17 03:33:19;;;;;;;19.40;8.35;;;;;;;11.87;100.00;100724.06;4976838;28;20109;-80
2023/09/17 03:35:46;;;;;;;27.35;9.57;;;;;;;11.87;100.00;100718.66;4993490;28;20469;-78
2023/09/17 03:38:12;;;;;;;23.98;10.70;;;;;;;11.90;100.00;100707.50;4996255;28;20515;-79
2023/09/17 03:40:39;;;;;;;20.63;9.73;;;;;;;11.90;100.00;100706.69;4996357;28;20034;-78
2023/09/17 03:43:06;;;;;;;22.42;8.93;;;;;;;11.86;100.00;100690.91;4996656;28;20034;-78
2023/09/17 03:45:31;;;;;;;25.67;9.65;;;;;;;11.93;100.00;100701.75;4980386;28;20035;-78
2023/09/17 03:47:57;;;;;;;23.38;9.98;;;;;;;11.94;100.00;100697.22;5012690;28;20031;-79
2023/09/17 03:50:23;;;;;;;21.05;9.75;;;;;;;11.94;100.00;100702.63;4996253;28;20121;-78
2023/09/17 03:52:53;;;;;;;27.85;9.68;;;;;;;11.95;100.00;100698.88;4996470;28;20043;-78
2023/09/17 03:55:20;;;;;;;21.80;8.38;;;;;;;11.96;100.00;100689.75;4996391;28;20030;-78
2023/09/17 03:57:46;;;;;;;24.98;9.70;;;;;;;11.98;100.00;100693.13;4995983;28;20497;-78
2023/09/17 04:00:13;;;;;;;25.05;10.75;;;;;;;11.99;100.00;100690.25;4996166;28;20034;-78
2023/09/17 04:02:40;;;;;;;18.42;8.95;;;;;;;12.01;100.00;100687.34;5012463;28;20030;-78
2023/09/17 04:05:13;;;;;;;20.15;8.93;;;;;;;12.00;100.00;100683.00;4979871;28;20485;-78
2023/09/17 04:07:46;;;;;;;21.98;9.07;;;;;;;12.02;100.00;100672.88;4979831;28;20056;-79
2023/09/17 04:10:15;;;;;;;20.77;8.70;;;;;;;12.03;100.00;100674.53;4996004;28;20065;-78
2023/09/17 04:12:42;;;;;;;20.42;8.07;;;;;;;12.04;100.00;100670.81;4979859;28;20069;-79
2023/09/17 04:15:16;;;;;;;19.85;8.32;;;;;;;12.04;100.00;100668.97;4995931;28;20038;-78
2023/09/17 04:17:43;;;;;;;21.15;9.07;;;;;;;12.07;100.00;100667.75;4996074;28;20038;-78
2023/09/17 04:20:10;;;;;;;15.52;8.57;;;;;;;12.08;100.00;100666.72;5011963;28;20041;-78
2023/09/17 04:22:36;;;;;;;16.38;7.75;;;;;;;12.08;100.00;100661.31;4995931;28;20042;-78
2023/09/17 04:25:04;;;;;;;17.20;8.05;;;;;;;12.07;100.00;100665.06;4963582;28;20039;-78
2023/09/17 04:27:31;;;;;;;27.13;11.07;;;;;;;12.07;100.00;100659.66;5011320;28;20030;-78
2023/09/17 04:29:56;;;;;;;31.15;9.90;;;;;;;12.05;100.00;100654.47;4995651;28;20061;-78
2023/09/17 04:32:22;;;;;;;20.40;9.13;;;;;;;12.06;100.00;100657.97;4979595;28;20129;-79
2023/09/17 04:34:48;;;;;;;19.13;9.07;;;;;;;12.06;100.00;100652.59;4995526;28;20058;-78
2023/09/17 04:37:19;;;;;;;22.05;9.63;;;;;;;12.06;100.00;100649.91;4979531;28;20034;-79
2023/09/17 04:39:49;;;;;;;16.40;8.18;;;;;;;12.05;100.00;100648.25;5010954;28;20026;-78
2023/09/17 04:42:15;;;;;;;22.65;8.98;;;;;;;12.04;100.00;100643.84;4995381;28;20027;-78
2023/09/17 04:44:40;;;;;;;19.27;9.18;;;;;;;12.04;100.00;100638.47;4995426;28;20043;-78
2023/09/17 04:47:06;;;;;;;23.25;8.93;;;;;;;12.03;100.00;100639.50;4994441;28;20035;-78
2023/09/17 04:49:32;;;;;;;19.10;8.13;;;;;;;12.05;100.00;100634.75;5010833;28;20042;-78
2023/09/17 04:51:57;;;;;;;16.15;7.47;;;;;;;12.04;100.00;100633.94;4995429;28;20034;-78
2023/09/17 04:54:26;;;;;;;20.65;8.57;;;;;;;12.05;100.00;100626.69;4994912;28;20034;-78
2023/09/17 04:56:52;;;;;;;15.38;7.60;;;;;;;12.06;100.00;100629.16;4978924;28;20181;-78
2023/09/17 04:59:17;;;;;;;20.10;8.23;;;;;;;12.08;100.00;100634.38;4995189;28;20077;-78
2023/09/17 05:01:43;;;;;;;16.70;7.70;;;;;;;12.09;100.00;100627.94;4979074;28;20039;-78
2023/09/17 05:04:09;;;;;;;20.20;7.85;;;;;;;12.09;100.00;100619.88;4979059;28;20034;-78
2023/09/17 05:06:36;;;;;;;17.40;8.88;;;;;;;12.10;100.00;100618.88;5010775;28;20390;-78
2023/09/17 05:09:02;;;;;;;17.45;8.23;;;;;;;12.12;100.00;100624.03;4978618;28;20088;-78
2023/09/17 05:11:28;;;;;;;19.85;8.30;;;;;;;12.13;100.00;100625.72;4994682;28;20042;-78
2023/09/17 05:13:53;;;;;;;17.33;8.13;;;;;;;12.11;100.00;100615.13;4994997;28;20148;-78
2023/09/17 05:16:19;;;;;;;18.13;8.48;;;;;;;12.10;100.00;100613.47;4994737;28;20038;-78
2023/09/17 05:18:44;;;;;;;18.98;9.27;;;;;;;12.10;100.00;100617.00;4978272;28;20026;-78
2023/09/17 05:21:11;;;;;;;19.90;8.40;;;;;;;12.14;100.00;100620.13;4994830;28;20034;-78
2023/09/17 05:23:38;;;;;;;13.68;7.50;;;;;;;12.14;100.00;100625.53;5010609;28;20031;-78
2023/09/17 05:26:03;;;;;;;20.65;7.88;;;;;;;12.14;100.00;100613.91;4994486;28;20113;-78
2023/09/17 05:28:29;;;;;;;15.55;7.55;;;;;;;12.11;100.00;100607.03;4978190;28;20113;-78
2023/09/17 05:30:56;;;;;;;14.95;7.82;;;;;;;12.14;100.00;100612.06;4994570;28;20038;-78
2023/09/17 05:33:23;;;;;;;15.88;7.88;;;;;;;12.15;100.00;100615.59;5010559;28;20030;-79
2023/09/17 05:35:56;;;;;;;16.85;7.90;;;;;;;12.16;100.00;100615.41;4995353;28;20038;-78
2023/09/17 05:38:25;;;;;;;14.40;7.53;;;;;;;12.18;100.00;100609.84;4994302;28;20038;-78
2023/09/17 05:40:50;;;;;;;22.38;7.85;;;;;;;12.17;100.00;100611.69;4994379;28;20057;-78
2023/09/17 05:43:16;;;;;;;15.90;7.47;;;;;;;12.18;100.00;100607.13;5010366;28;20473;-78
2023/09/17 05:45:42;;;;;;;12.43;7.13;;;;;;;12.18;100.00;100602.56;5010474;28;20035;-78
2023/09/17 05:48:07;;;;;;;15.50;7.07;;;;;;;12.18;100.00;100599.88;4977506;28;20481;-78
2023/09/17 05:50:33;;;;;;;17.02;7.50;;;;;;;12.16;100.00;100593.84;5010452;28;20125;-78
2023/09/17 05:52:58;;;;;;;15.40;6.97;;;;;;;12.18;100.00;100594.50;4994226;28;20061;-79
2023/09/17 05:55:24;;;;;;;16.65;7.00;;;;;;;12.19;100.00;100596.16;4994178;28;20042;-79
2023/09/17 05:57:50;;;;;;;12.25;6.22;;;;;;;12.20;100.00;100589.75;4994882;28;20034;-78
2023/09/17 06:00:17;;;;;;;12.85;7.20;;;;;;;12.22;100.00;100593.06;4961539;28;20030;-78
2023/09/17 06:02:43;;;;;;;16.27;7.20;;;;;;;12.23;100.00;100596.63;4994033;28;20042;-78
2023/09/17 06:05:09;;;;;;;12.50;6.60;;;;;;;12.25;100.00;100594.53;4977447;28;20030;-78
2023/09/17 06:07:35;;;;;;;11.98;6.78;;;;;;;12.26;100.00;100588.16;4993677;28;20077;-78
2023/09/17 06:10:00;;;;;;;12.52;6.50;;;;;;;12.28;100.00;100586.94;4977789;28;20065;-78
2023/09/17 06:12:26;;;;;;;12.57;6.20;;;;;;;12.30;100.00;100589.41;4993550;28;20045;-78
2023/09/17 06:14:52;;;;;;;9.20;6.38;;;;;;;12.30;100.00;100579.50;4977494;28;20034;-78
2023/09/17 06:17:17;;;;;;;11.52;6.72;;;;;;;12.32;100.00;100585.50;4977395;28;20031;-79
2023/09/17 06:19:43;;;;;;;12.63;6.07;;;;;;;12.33;100.00;100583.63;4977668;28;20030;-78
2023/09/17 06:22:09;;;;;;;10.90;6.43;;;;;;;12.33;100.00;100575.56;4993627;28;20385;-78
2023/09/17 06:24:34;;;;;;;22.75;7.28;;;;;;;12.35;100.00;100578.91;4977484;28;20125;-78
2023/09/17 06:27:00;;;;;;;11.75;5.90;;;;;;;12.38;100.00;100583.06;4994135;28;20113;-78
2023/09/17 06:29:26;;;;;;;11.60;5.82;;;;;;;12.41;100.00;100588.06;4977439;28;20034;-78
2023/09/17 06:31:51;;;;;;;14.07;6.63;;;;;;;12.40;100.00;100576.47;4977332;28;20158;-78
2023/09/17 06:34:17;;;;;;;11.15;6.20;;;;;;;12.41;100.00;100574.59;4993402;28;20030;-78
2023/09/17 06:36:43;;;;;;;10.98;5.65;;;;;;;12.47;100.00;100585.47;4993393;28;20474;-78
2023/09/17 06:39:08;;;;;;;10.25;5.90;;;;;;;12.48;100.00;100583.59;4992973;28;20030;-78
2023/09/17 06:41:34;;;;;;;12.20;5.78;;;;;;;12.49;100.00;100586.09;4977276;28;20034;-78
2023/09/17 06:44:00;;;;;;;9.88;5.88;;;;;;;12.52;100.00;100579.50;4993413;28;20121;-79
2023/09/17 06:46:26;;;;;;;10.93;5.63;;;;;;;12.53;100.00;100583.84;4976460;28;20781;-80
2023/09/17 06:48:52;;;;;;;10.07;5.65;;;;;;;12.52;100.00;100579.50;4993155;28;20039;-78
2023/09/17 06:51:18;;;;;;;12.18;5.97;;;;;;;12.51;100.00;100580.50;5009282;28;20093;-78
2023/09/17 06:53:43;;;;;;;12.20;6.32;;;;;;;12.50;100.00;100574.28;4993138;28;20030;-78
2023/09/17 06:56:10;;;;;;;11.93;6.15;;;;;;;12.50;100.00;100578.84;4976908;28;20038;-79
2023/09/17 06:58:36;;;;;;;11.90;6.40;;;;;;;12.50;100.00;100584.25;5009220;28;20058;-78
2023/09/17 07:01:02;;;;;;;11.32;6.45;;;;;;;12.48;100.00;100572.81;5008821;28;20108;-80
2023/09/17 07:03:27;;;;;;;13.55;6.18;;;;;;;12.54;100.00;100577.41;4992929;28;20030;-80
2023/09/17 07:05:53;;;;;;;12.20;6.25;;;;;;;12.54;100.00;100569.31;4992705;28;20027;-77
2023/09/17 07:08:19;;;;;;;10.52;5.80;;;;;;;12.59;100.00;100569.59;4992501;28;20041;-79
2023/09/17 07:10:45;;;;;;;14.57;7.43;;;;;;;12.62;100.00;100565.66;4993596;28;20042;-78
2023/09/17 07:13:11;;;;;;;13.77;7.10;;;;;;;12.65;100.00;100566.13;5013011;28;20031;-80
2023/09/17 07:15:37;;;;;;;14.80;8.18;;;;;;;12.69;100.00;100567.41;4997026;28;20037;-77
2023/09/17 07:18:02;;;;;;;12.82;6.63;;;;;;;12.71;100.00;100559.13;4980827;28;20043;-78
2023/09/17 07:20:28;;;;;;;13.65;7.32;;;;;;;12.73;100.00;100563.28;5012908;28;20033;-79
2023/09/17 07:22:54;;;;;;;16.58;7.15;;;;;;;12.73;100.00;100555.19;4996555;28;20084;-79
2023/09/17 07:25:20;;;;;;;12.00;5.75;;;;;;;12.73;100.00;100555.19;4996945;28;20117;-79
2023/09/17 07:27:46;;;;;;;12.02;7.03;;;;;;;12.71;100.00;100557.25;4996380;28;20037;-79
2023/09/17 07:30:12;;;;;;;14.57;6.78;;;;;;;12.72;100.00;100553.50;4980611;28;20034;-78
2023/09/17 07:32:44;;;;;;;15.52;7.82;;;;;;;12.75;100.00;100563.09;4996561;28;20026;-80
2023/09/17 07:35:10;;;;;;;14.75;6.85;;;;;;;12.75;100.00;100549.59;4996106;28;20031;-80
2023/09/17 07:37:35;;;;;;;11.55;5.95;;;;;;;12.77;100.00;100561.03;4996409;28;20049;-78
2023/09/17 07:40:04;;;;;;;12.43;6.15;;;;;;;12.81;100.00;100556.06;4996706;28;20500;-78
2023/09/17 07:42:30;;;;;;;11.52;6.32;;;;;;;12.82;100.00;100555.88;4980413;28;20046;-79
2023/09/17 07:44:56;;;;;;;9.63;5.38;;;;;;;12.84;100.00;100548.44;4980288;28;20034;-79
2023/09/17 07:47:22;;;;;;;11.20;5.53;;;;;;;12.88;100.00;100551.56;4996261;28;20041;-78
2023/09/17 07:49:48;;;;;;;10.38;5.03;;;;;;;12.94;100.00;100553.50;4980089;28;20045;-80
2023/09/17 07:52:13;;;;;;;6.80;4.25;;;;;;;13.03;100.00;100546.09;4996355;28;20043;-80
2023/09/17 07:54:40;;;;;;;10.52;4.55;;;;;;;13.11;100.00;100537.81;5012408;28;20026;-80
2023/09/17 07:57:11;;;;;;;7.68;4.38;;;;;;;13.17;100.00;100537.03;4995927;28;20053;-80
2023/09/17 07:59:37;;;;;;;6.82;4.03;;;;;;;13.20;100.00;100531.22;4980197;28;20466;-80
2023/09/17 08:02:05;;;;;;;7.63;4.00;;;;;;;13.28;100.00;100535.66;4979614;28;20046;-80
2023/09/17 08:04:31;;;;;;;7.10;3.33;;;;;;;13.32;100.00;100535.06;4996406;28;20069;-80
2023/09/17 08:06:57;;;;;;;5.57;3.40;;;;;;;13.36;100.00;100532.81;4979891;28;20030;-80
2023/09/17 08:09:22;;;;;;;4.60;3.05;;;;;;;13.38;100.00;100528.03;4979825;28;20045;-80
2023/09/17 08:11:49;;;;;;;4.57;2.78;;;;;;;13.43;100.00;100525.56;4979835;28;20120;-79
2023/09/17 08:14:15;;;;;;;4.30;3.00;;;;;;;13.47;100.00;100521.47;5012070;28;20118;-80
2023/09/17 08:16:40;;;;;;;4.68;2.90;;;;;;;13.56;100.00;100520.22;4995930;28;20038;-79
2023/09/17 08:19:06;;;;;;;3.92;2.55;;;;;;;13.70;100.00;100513.00;4979688;28;20034;-79
2023/09/17 08:21:32;;;;;;;3.55;2.58;;;;;;;13.83;100.00;100507.66;4995460;28;20038;-79
2023/09/17 08:24:01;;;;;;;3.53;2.20;;;;;;;13.96;100.00;100516.84;5011575;28;20136;-80
2023/09/17 08:26:47;;;;;;;2.78;2.30;;;;;;;14.03;100.00;100510.41;4995333;28;20026;-79
2023/09/17 08:29:29;;;;;;;2.95;1.88;;;;;;;13.95;100.00;100507.91;5009533;28;20077;-78
2023/09/17 08:32:14;;;;;;;2.53;1.92;;;;;;;13.91;100.00;100509.34;5007842;28;20041;-79
2023/09/17 08:35:01;;;;;;;2.78;1.92;;;;;;;13.91;100.00;100506.63;4979939;28;20032;-77
2023/09/17 08:37:26;;;;;;;2.75;1.90;;;;;;;13.94;100.00;100500.00;4977753;28;20045;-79
2023/09/17 08:39:52;;;;;;;3.00;2.05;;;;;;;13.97;100.00;100500.44;4976766;28;20038;-77
2023/09/17 08:42:17;;;;;;;3.97;2.30;;;;;;;14.01;100.00;100496.25;4976923;28;20026;-77
2023/09/17 08:44:44;;;;;;;2.70;2.10;;;;;;;14.14;100.00;100500.03;4993120;28;20086;-78
2023/09/17 08:47:09;;;;;;;2.40;1.70;;;;;;;14.19;100.00;100501.09;4995099;28;20061;-76
2023/09/17 08:49:35;;;;;;;2.75;1.67;;;;;;;14.21;100.00;100493.59;4995432;28;20041;-76
2023/09/17 08:52:04;;;;;;;2.83;1.85;;;;;;;14.29;100.00;100492.59;4979173;28;20042;-77
2023/09/17 08:54:37;;;;;;;3.15;2.00;;;;;;;14.34;100.00;100492.75;4963230;28;20034;-76
2023/09/17 08:57:05;;;;;;;2.75;1.90;;;;;;;14.38;100.00;100485.09;4963046;28;20125;-76
2023/09/17 08:59:35;;;;;;;3.00;2.17;;;;;;;14.48;100.00;100485.50;4963145;28;20042;-77
2023/09/17 09:02:07;;;;;;;2.70;2.00;;;;;;;14.63;100.00;100496.13;4995050;28;20045;-76
2023/09/17 09:04:36;;;;;;;3.40;2.33;;;;;;;14.74;100.00;100490.13;4995225;28;20035;-78
2023/09/17 09:07:03;;;;;;;2.90;2.15;;;;;;;15.01;100.00;100482.78;5010868;28;20039;-77
2023/09/17 09:09:28;;;;;;;2.28;1.92;;;;;;;15.24;100.00;100476.88;4978974;28;20575;-77
2023/09/17 09:11:54;;;;;;;2.20;1.88;;;;;;;15.48;100.00;100479.91;4978906;28;20133;-77
2023/09/17 09:14:20;;;;;;;2.38;1.83;;;;;;;15.63;100.00;100474.22;4978822;28;20036;-76
2023/09/17 09:16:46;;;;;;;2.25;1.80;;;;;;;15.76;100.00;100474.19;4978702;28;20141;-76
2023/09/17 09:19:11;;;;;;;3.28;2.08;;;;;;;15.70;100.00;100475.88;4994552;28;20086;-76
2023/09/17 09:21:37;;;;;;;1.90;1.70;;;;;;;15.52;100.00;100470.31;4994437;28;20424;-77
2023/09/17 09:24:02;;;;;;;2.38;1.88;;;;;;;15.36;100.00;100477.03;4994011;28;20033;-77
2023/09/17 09:26:38;;;;;;;2.20;1.80;;;;;;;15.24;100.00;100471.47;4978024;28;20030;-77
2023/09/17 09:29:05;;;;;;;2.20;1.80;;;;;;;15.16;100.00;100468.97;4994500;28;20420;-76
2023/09/17 09:31:31;;;;;;;1.98;1.70;;;;;;;15.09;100.00;100473.59;5010413;28;20088;-77
2023/09/17 09:34:01;;;;;;;3.40;1.90;;;;;;;15.19;100.00;100471.28;4975263;28;20645;-77
2023/09/17 09:36:28;;;;;;;2.30;1.70;;;;;;;15.33;100.00;100474.75;4991542;28;20026;-78
2023/09/17 09:38:56;;;;;;;2.42;1.80;;;;;;;15.42;100.00;100472.63;4991742;28;20034;-78
2023/09/17 09:41:22;;;;;;;3.55;1.63;;;;;;;15.68;100.00;100475.22;5007937;28;20026;-76
2023/09/17 09:43:48;;;;;;;2.20;1.70;;;;;;;15.92;100.00;100465.53;4975699;28;20042;-77
2023/09/17 09:46:14;;;;;;;3.35;2.05;;;;;;;16.14;100.00;100479.59;4976042;28;20034;-77
2023/09/17 09:48:41;;;;;;;2.10;1.70;;;;;;;16.32;100.00;100469.84;4975899;28;20088;-77
2023/09/17 09:51:07;;;;;;;1.83;1.52;;;;;;;16.33;100.00;100456.06;5010075;28;20516;-77
2023/09/17 09:53:32;;;;;;;2.42;1.50;;;;;;;16.10;100.00;100458.53;4977456;28;20126;-76
2023/09/17 09:55:58;;;;;;;2.10;1.77;;;;;;;15.91;100.00;100455.75;4993478;28;20022;-76
2023/09/17 09:58:29;;;;;;;2.15;1.77;;;;;;;15.90;100.00;100450.53;4977681;28;20118;-77
2023/09/17 10:00:56;;;;;;;1.90;1.58;;;;;;;16.04;100.00;100442.09;5009296;28;20042;-77
2023/09/17 10:03:24;;;;;;;1.85;1.42;;;;;;;16.28;100.00;100434.19;4977736;28;20092;-77
2023/09/17 10:05:50;;;;;;;1.88;1.48;;;;;;;16.41;100.00;100435.97;4993679;28;20030;-78
2023/09/17 10:08:17;;;;;;;2.10;1.73;;;;;;;16.52;100.00;100437.94;4976404;28;20046;-77
2023/09/17 10:10:47;;;;;;;1.90;1.50;;;;;;;16.64;100.00;100430.72;4991581;28;20037;-77
2023/09/17 10:13:13;;;;;;;1.50;1.30;;;;;;;16.79;100.00;100424.16;4975162;28;20068;-77
2023/09/17 10:15:43;;;;;;;1.30;1.20;;;;;;;16.91;100.00;100427.78;4991440;28;20061;-78
2023/09/17 10:18:12;;;;;;;2.90;1.65;;;;;;;16.98;100.00;100425.00;4975251;28;20034;-76
2023/09/17 10:20:39;;;;;;;2.00;1.50;;;;;;;16.93;100.00;100422.94;4991532;28;20046;-77
2023/09/17 10:23:05;;;;;;;2.03;1.30;;;;;;;17.05;100.00;100421.16;4991357;28;20038;-77
2023/09/17 10:25:31;;;;;;;2.03;1.40;;;;;;;17.18;100.00;100422.06;4961011;28;20041;-76
2023/09/17 10:27:58;;;;;;;1.73;1.40;;;;;;;17.28;100.00;100419.59;4976758;28;20128;-77
2023/09/17 10:30:24;;;;;;;1.50;1.00;;;;;;;17.43;100.00;100411.88;4993281;28;20038;-77
2023/09/17 10:32:51;;;;;;;1.30;1.00;;;;;;;17.63;100.00;100413.53;4976178;28;20045;-76
2023/09/17 10:35:16;;;;;;;1.63;1.13;;;;;;;17.83;100.00;100405.91;4992782;28;20105;-76
2023/09/17 10:37:43;;;;;;;1.10;1.00;;;;;;;18.11;100.00;100409.91;4993697;28;20046;-76
2023/09/17 10:40:10;;;;;;;1.40;0.93;;;;;;;18.44;100.00;100398.44;5009621;28;20034;-77
2023/09/17 10:42:38;;;;;;;1.23;1.10;;;;;;;18.76;100.00;100396.22;4993459;28;20049;-77
2023/09/17 10:45:09;;;;;;;1.20;1.00;;;;;;;18.79;100.00;100398.47;4993243;28;20072;-77
2023/09/17 10:47:36;;;;;;;1.10;0.95;;;;;;;18.91;100.00;100392.16;4960917;28;20030;-77
2023/09/17 10:50:03;;;;;;;1.55;0.80;;;;;;;19.30;100.00;100393.25;4977070;28;20441;-76
2023/09/17 10:52:30;;;;;;;1.30;1.20;;;;;;;19.42;100.00;100385.84;4992799;28;20037;-77
2023/09/17 10:54:56;;;;;;;1.35;1.10;;;;;;;19.77;100.00;100391.16;4976791;28;20389;-77
2023/09/17 10:57:27;;;;;;;2.33;1.20;;;;;;;19.71;100.00;100391.31;4976958;28;20034;-77
2023/09/17 10:59:54;;;;;;;1.45;1.17;;;;;;;19.64;100.00;100380.53;4976984;28;20053;-77
2023/09/17 11:02:21;;;;;;;1.10;1.00;;;;;;;19.29;100.00;100375.22;4993003;28;20045;-77
2023/09/17 11:04:47;;;;;;;1.52;1.20;;;;;;;19.37;100.00;100371.28;5009196;28;20038;-77
2023/09/17 11:07:13;;;;;;;1.25;1.08;;;;;;;20.01;100.00;100371.09;4976669;28;20046;-77
2023/09/17 11:09:41;;;;;;;1.40;1.20;;;;;;;20.27;100.00;100375.91;4976366;28;20469;-77
2023/09/17 11:12:07;;;;;;;1.88;1.30;;;;;;;20.73;100.00;100373.03;5009032;28;20113;-77